Terminal Aerodrome Forecast
Issued by NWS Goodland, KS

Home | Current Version | Previous Version | Text Only | Print | Product List | Glossary On
Versions: 1 2 3 4 5 6 7 8 9 10 11 12 13 14 15 16 17 18 19 20 21 22 23 24 25
423
FTUS43 KGLD 251739
TAFGLD
TAF
KGLD 251739Z 2518/2618 02011KT P6SM VCSH BKN008 OVC013
     FM260400 35008KT P6SM OVC005
     FM261200 35008KT P6SM BKN010
     FM261600 35007KT P6SM SCT030 BKN050
     FM261700 36007KT P6SM SCT060 BKN200=

USA.gov is the U.S. government's official web portal to all federal, state and local government web resources and services.